createdAt,value
2023-03-30T00:00:02.061Z,72.49
2023-03-30T00:03:55.665Z,72.76
2023-03-30T00:07:48.397Z,72.64
2023-03-30T00:11:40.954Z,72.65
2023-03-30T00:15:33.415Z,74.94
2023-03-30T00:19:26.899Z,75.56
2023-03-30T00:23:19.748Z,75.44
2023-03-30T00:27:12.275Z,75.70
2023-03-30T00:31:05.160Z,76.60
2023-03-30T00:34:57.666Z,76.77
2023-03-30T00:38:50.744Z,77.49
2023-03-30T00:42:43.142Z,76.80
2023-03-30T00:46:36.227Z,76.34
2023-03-30T00:50:49.037Z,76.36
2023-03-30T00:54:41.534Z,75.68
2023-03-30T00:58:34.197Z,75.31
2023-03-30T01:02:28.421Z,75.63
2023-03-30T01:06:30.245Z,75.43
2023-03-30T01:10:22.983Z,75.88
2023-03-30T01:14:16.470Z,76.49
2023-03-30T01:18:11.958Z,76.37
2023-03-30T01:22:15.064Z,76.60
2023-03-30T01:26:16.739Z,76.46
2023-03-30T01:30:28.175Z,76.32
2023-03-30T01:34:39.285Z,76.21
2023-03-30T01:38:41.685Z,76.17
2023-03-30T01:42:37.538Z,75.17
2023-03-30T01:46:35.487Z,74.65
2023-03-30T01:50:38.315Z,74.24
2023-03-30T01:54:37.056Z,73.78
2023-03-30T01:58:33.513Z,73.17
2023-03-30T02:02:28.405Z,72.81
2023-03-30T02:06:25.938Z,72.90
2023-03-30T02:10:18.734Z,73.48
2023-03-30T02:14:13.437Z,73.06
2023-03-30T02:18:06.243Z,72.51
2023-03-30T02:21:59.331Z,72.39
2023-03-30T02:25:51.669Z,71.98
2023-03-30T02:29:45.659Z,72.05
2023-03-30T02:33:44.350Z,71.81
2023-03-30T02:37:43.293Z,71.85
2023-03-30T02:41:36.021Z,73.03
2023-03-30T02:45:47.125Z,72.97
2023-03-30T02:50:00.578Z,74.44
2023-03-30T02:53:53.137Z,74.31
2023-03-30T02:58:08.559Z,75.27
2023-03-30T03:02:05.375Z,76.10
2023-03-30T03:06:02.782Z,77.50
2023-03-30T03:09:55.288Z,77.94
2023-03-30T03:13:47.995Z,78.08
2023-03-30T03:17:40.370Z,77.81
2023-03-30T03:21:32.808Z,78.41
2023-03-30T03:25:25.652Z,79.38
2023-03-30T03:29:18.144Z,79.59
2023-03-30T03:33:10.855Z,79.16
2023-03-30T03:37:03.386Z,79.29
2023-03-30T03:40:57.257Z,78.62
2023-03-30T03:44:50.071Z,78.61
2023-03-30T03:48:42.428Z,78.81
2023-03-30T03:52:35.062Z,78.17
2023-03-30T03:56:27.842Z,78.22
2023-03-30T04:00:20.804Z,77.34
2023-03-30T04:04:13.394Z,77.10
2023-03-30T04:08:06.284Z,76.42
2023-03-30T04:11:58.773Z,75.39
2023-03-30T04:15:51.379Z,75.32
2023-03-30T04:19:43.955Z,75.09
2023-03-30T04:23:36.582Z,74.86
2023-03-30T04:27:29.160Z,74.92
2023-03-30T04:31:22.897Z,74.69
2023-03-30T04:35:17.078Z,74.15
2023-03-30T04:39:11.489Z,74.24
2023-03-30T04:43:04.123Z,74.38
2023-03-30T04:46:57.049Z,74.14
2023-03-30T04:50:50.402Z,73.66
2023-03-30T04:54:43.058Z,74.12
2023-03-30T04:58:35.528Z,74.10
2023-03-30T05:02:28.436Z,73.73
2023-03-30T05:06:22.085Z,73.82
2023-03-30T05:10:15.012Z,73.45
2023-03-30T05:14:07.491Z,73.35
2023-03-30T05:18:00.433Z,73.23
2023-03-30T05:21:52.974Z,73.38
2023-03-30T05:25:46.775Z,72.69
2023-03-30T05:29:39.375Z,72.20
2023-03-30T05:33:32.688Z,72.23
2023-03-30T05:37:25.525Z,71.77
2023-03-30T05:41:18.093Z,71.05
2023-03-30T05:45:11.443Z,69.47
2023-03-30T05:49:03.814Z,69.00
2023-03-30T05:52:56.849Z,69.29
2023-03-30T05:56:52.208Z,69.38
2023-03-30T06:00:47.166Z,69.67
2023-03-30T06:04:39.871Z,69.16
2023-03-30T06:08:33.181Z,68.34
2023-03-30T06:12:26.143Z,68.68
2023-03-30T06:16:18.932Z,69.18
2023-03-30T06:20:12.832Z,69.11
2023-03-30T06:24:05.476Z,69.16
2023-03-30T06:27:58.770Z,68.29
2023-03-30T06:31:53.631Z,68.37
2023-03-30T06:35:50.425Z,69.44
2023-03-30T06:39:42.807Z,69.96
2023-03-30T06:43:35.560Z,69.64
2023-03-30T06:47:28.101Z,69.07
2023-03-30T06:51:21.365Z,68.58
2023-03-30T06:55:14.092Z,67.53
2023-03-30T06:59:07.250Z,67.56
2023-03-30T07:02:59.943Z,66.41
2023-03-30T07:06:52.406Z,66.47
2023-03-30T07:10:46.279Z,66.96
2023-03-30T07:14:38.555Z,66.96
2023-03-30T07:18:31.775Z,66.44
2023-03-30T07:22:24.270Z,66.03
2023-03-30T07:26:17.696Z,65.98
2023-03-30T07:30:21.173Z,65.67
2023-03-30T07:34:14.489Z,65.78
2023-03-30T07:38:06.820Z,65.62
2023-03-30T07:41:59.072Z,65.53
2023-03-30T07:45:51.744Z,64.61
2023-03-30T07:49:44.169Z,64.77
2023-03-30T07:53:37.014Z,65.08
2023-03-30T07:57:29.500Z,65.32
2023-03-30T08:01:22.236Z,65.19
2023-03-30T08:05:15.843Z,63.45
2023-03-30T08:09:08.869Z,64.26
2023-03-30T08:13:01.672Z,63.26
2023-03-30T08:16:54.578Z,62.34
2023-03-30T08:20:50.145Z,61.30
2023-03-30T08:24:42.385Z,61.42
2023-03-30T08:28:34.778Z,61.78
2023-03-30T08:32:27.032Z,61.72
2023-03-30T08:36:20.992Z,61.60
2023-03-30T08:40:15.891Z,61.14
2023-03-30T08:44:28.452Z,61.86
2023-03-30T08:48:22.537Z,61.86
2023-03-30T08:52:20.985Z,61.17
2023-03-30T08:56:15.227Z,61.73
2023-03-30T09:00:27.697Z,61.21
2023-03-30T09:04:20.734Z,61.67
2023-03-30T09:08:16.299Z,62.06
2023-03-30T09:12:13.446Z,62.52
2023-03-30T09:16:06.178Z,62.48
2023-03-30T09:20:02.140Z,62.59
2023-03-30T09:23:56.507Z,61.69
2023-03-30T09:27:56.834Z,60.68
2023-03-30T09:31:51.466Z,60.35
2023-03-30T09:35:49.156Z,61.03
2023-03-30T09:39:42.150Z,61.81
2023-03-30T09:43:38.048Z,62.54
2023-03-30T09:47:35.734Z,62.25
2023-03-30T09:51:32.312Z,61.01
2023-03-30T09:55:26.649Z,62.20
2023-03-30T09:59:37.987Z,61.11
2023-03-30T10:03:30.484Z,61.15
2023-03-30T10:07:32.150Z,60.32
2023-03-30T10:11:35.842Z,60.87
2023-03-30T10:15:31.507Z,60.18
2023-03-30T10:19:25.321Z,59.57
2023-03-30T10:23:18.996Z,59.88
2023-03-30T10:27:14.702Z,60.22
2023-03-30T10:31:13.791Z,58.40
2023-03-30T10:35:10.360Z,58.15
2023-03-30T10:39:14.404Z,58.50
2023-03-30T10:43:12.952Z,59.47
2023-03-30T10:47:31.674Z,59.21
2023-03-30T10:51:27.484Z,58.96
2023-03-30T10:55:34.313Z,57.68
2023-03-30T10:59:36.440Z,57.03
2023-03-30T11:03:32.190Z,56.91
2023-03-30T11:07:30.134Z,56.05
2023-03-30T11:11:23.741Z,55.74
2023-03-30T11:15:19.770Z,55.91
2023-03-30T11:19:24.729Z,55.48
2023-03-30T11:23:25.983Z,55.70
2023-03-30T11:27:34.367Z,56.37
2023-03-30T11:45:10.626Z,55.62
2023-03-30T11:53:37.909Z,55.93
2023-03-30T11:58:02.674Z,56.81
2023-03-30T12:02:13.546Z,55.68
2023-03-30T12:06:28.894Z,55.49
2023-03-30T12:15:23.358Z,54.98
2023-03-30T12:24:14.933Z,55.63
2023-03-30T12:28:44.197Z,55.37
2023-03-30T12:33:29.238Z,56.18
2023-03-30T12:37:29.394Z,56.18
2023-03-30T12:41:38.760Z,56.67
2023-03-30T12:45:45.710Z,56.01
2023-03-30T12:49:53.293Z,56.83
2023-03-30T12:58:41.893Z,56.93
2023-03-30T13:02:59.108Z,57.19
2023-03-30T13:06:58.983Z,57.39
2023-03-30T13:11:21.262Z,58.01
2023-03-30T13:15:17.214Z,57.37
2023-03-30T13:19:28.224Z,57.74
2023-03-30T13:23:20.695Z,57.68
2023-03-30T13:27:27.381Z,57.78
2023-03-30T13:31:21.263Z,58.13
2023-03-30T13:35:33.632Z,58.10
2023-03-30T13:39:31.627Z,58.20
2023-03-30T13:43:26.806Z,59.01
2023-03-30T13:47:31.859Z,58.74
2023-03-30T13:51:27.431Z,58.81
2023-03-30T13:55:29.481Z,59.17
2023-03-30T13:59:24.064Z,58.76
2023-03-30T14:03:35.817Z,58.84
2023-03-30T14:07:30.380Z,58.41
2023-03-30T14:11:29.136Z,58.31
2023-03-30T14:15:26.750Z,59.27
2023-03-30T14:19:22.399Z,59.03
2023-03-30T14:23:18.063Z,59.59
2023-03-30T14:27:15.283Z,59.64
2023-03-30T14:31:13.979Z,59.61
2023-03-30T14:35:08.601Z,60.05
2023-03-30T14:39:01.679Z,60.29
2023-03-30T14:42:54.003Z,60.04
2023-03-30T14:46:53.342Z,60.36
2023-03-30T14:50:45.752Z,60.83
2023-03-30T14:54:38.697Z,61.75
2023-03-30T14:58:31.757Z,62.56
2023-03-30T15:02:26.390Z,62.51
2023-03-30T15:06:24.420Z,62.94
2023-03-30T15:10:25.156Z,62.73
2023-03-30T15:14:19.208Z,63.40
2023-03-30T15:18:17.053Z,64.38
2023-03-30T15:22:24.940Z,64.87
2023-03-30T15:26:18.463Z,65.74
2023-03-30T15:30:20.688Z,67.06
2023-03-30T15:34:16.933Z,69.41
2023-03-30T15:38:12.520Z,72.53
2023-03-30T15:42:06.124Z,72.46
2023-03-30T15:46:04.690Z,74.03
2023-03-30T15:49:57.191Z,76.99
2023-03-30T15:53:55.772Z,77.70
2023-03-30T15:57:49.129Z,77.95
2023-03-30T16:01:47.862Z,77.94
2023-03-30T16:05:41.564Z,78.84
2023-03-30T16:09:34.451Z,79.19
2023-03-30T16:13:26.854Z,79.39
2023-03-30T16:17:19.762Z,79.34
2023-03-30T16:21:12.584Z,80.14
2023-03-30T16:25:05.519Z,80.51
2023-03-30T16:28:58.185Z,80.75
2023-03-30T16:32:50.933Z,80.64
2023-03-30T16:36:44.477Z,80.20
2023-03-30T16:40:42.986Z,80.30
2023-03-30T16:44:36.600Z,80.81
2023-03-30T16:48:29.052Z,80.71
2023-03-30T16:52:21.887Z,80.81
2023-03-30T16:56:18.158Z,81.55
2023-03-30T17:00:17.258Z,81.39
2023-03-30T17:04:10.425Z,82.42
2023-03-30T17:08:35.255Z,82.88
2023-03-30T17:12:27.648Z,82.90
2023-03-30T17:16:22.337Z,82.94
2023-03-30T17:20:36.284Z,83.64
2023-03-30T17:24:28.858Z,83.04
2023-03-30T17:28:26.663Z,82.71
2023-03-30T17:32:20.357Z,82.37
2023-03-30T17:36:20.962Z,82.29
2023-03-30T17:40:16.093Z,82.07
2023-03-30T17:44:08.958Z,82.15
2023-03-30T17:48:02.384Z,82.52
2023-03-30T17:51:55.244Z,81.91
2023-03-30T17:55:51.759Z,81.85
2023-03-30T17:59:44.646Z,82.13
2023-03-30T18:03:39.734Z,82.09
2023-03-30T18:07:33.745Z,82.24
2023-03-30T18:11:27.724Z,82.23
2023-03-30T18:15:30.735Z,84.15
2023-03-30T18:19:23.382Z,85.00
2023-03-30T18:23:16.726Z,85.80
2023-03-30T18:27:10.193Z,85.99
2023-03-30T18:31:04.472Z,86.38
2023-03-30T18:34:58.401Z,87.47
2023-03-30T18:38:55.232Z,88.09
2023-03-30T18:42:48.717Z,88.94
2023-03-30T18:46:41.802Z,89.71
2023-03-30T18:50:35.286Z,89.21
2023-03-30T18:54:28.762Z,89.71
2023-03-30T18:58:23.766Z,90.17
2023-03-30T19:02:17.015Z,90.11
2023-03-30T19:06:12.757Z,89.28
2023-03-30T19:10:06.964Z,90.38
2023-03-30T19:14:01.603Z,89.73
2023-03-30T19:17:59.424Z,90.12
2023-03-30T19:21:58.424Z,90.44
2023-03-30T19:25:52.173Z,90.72
2023-03-30T19:29:45.384Z,89.85
2023-03-30T19:33:42.211Z,89.73
2023-03-30T19:37:38.483Z,90.39
2023-03-30T19:41:31.625Z,90.72
2023-03-30T19:45:25.122Z,90.73
2023-03-30T19:49:18.171Z,91.43
2023-03-30T19:53:11.924Z,91.38
2023-03-30T19:57:04.594Z,91.43
2023-03-30T20:00:57.976Z,91.18
2023-03-30T20:04:50.854Z,91.40
2023-03-30T20:08:44.480Z,91.26
2023-03-30T20:12:37.116Z,90.81
2023-03-30T20:16:30.126Z,91.41
2023-03-30T20:20:26.297Z,91.40
2023-03-30T20:24:18.980Z,91.36
2023-03-30T20:28:11.949Z,91.22
2023-03-30T20:32:04.697Z,91.62
2023-03-30T20:35:58.501Z,91.47
2023-03-30T20:39:50.904Z,91.94
2023-03-30T20:43:56.276Z,91.95
2023-03-30T20:47:50.315Z,91.57
2023-03-30T20:51:45.248Z,91.39
2023-03-30T20:55:37.595Z,91.75
2023-03-30T20:59:30.294Z,92.05
2023-03-30T21:03:26.171Z,92.19
2023-03-30T21:07:18.573Z,92.34
2023-03-30T21:11:11.442Z,91.97
2023-03-30T21:15:04.455Z,91.83
2023-03-30T21:18:56.691Z,91.76
2023-03-30T21:22:49.290Z,91.99
2023-03-30T21:26:41.534Z,92.11
2023-03-30T21:30:35.751Z,92.38
2023-03-30T21:34:27.973Z,92.20
2023-03-30T21:38:21.194Z,92.01
2023-03-30T21:42:13.428Z,92.26
2023-03-30T21:46:10.700Z,92.34
2023-03-30T21:50:03.333Z,92.57
2023-03-30T21:53:56.038Z,92.76
2023-03-30T21:57:48.370Z,92.81
2023-03-30T22:01:40.940Z,92.75
2023-03-30T22:05:33.255Z,92.81
2023-03-30T22:09:25.573Z,92.86
2023-03-30T22:13:17.987Z,92.88
2023-03-30T22:17:11.575Z,92.76
2023-03-30T22:21:06.847Z,92.59
2023-03-30T22:24:59.444Z,92.04
2023-03-30T22:28:51.815Z,91.33
2023-03-30T22:32:44.207Z,91.38
2023-03-30T22:36:36.522Z,91.40
2023-03-30T22:40:28.907Z,91.53
2023-03-30T22:44:21.592Z,92.34
2023-03-30T22:48:13.843Z,92.72
2023-03-30T22:52:06.696Z,92.66
2023-03-30T22:55:59.150Z,92.38
2023-03-30T22:59:51.415Z,92.53
2023-03-30T23:03:44.202Z,92.72
2023-03-30T23:07:37.144Z,92.79
2023-03-30T23:11:29.713Z,92.72
2023-03-30T23:15:22.481Z,92.53
2023-03-30T23:19:14.670Z,92.42
2023-03-30T23:23:07.211Z,92.28
2023-03-30T23:26:59.643Z,92.07
2023-03-30T23:30:52.077Z,91.86
2023-03-30T23:34:44.614Z,91.92
2023-03-30T23:38:37.695Z,91.83
2023-03-30T23:42:30.113Z,91.87
2023-03-30T23:46:23.856Z,91.80
2023-03-30T23:50:17.186Z,91.89
2023-03-30T23:54:09.560Z,91.84
2023-03-30T23:58:01.955Z,91.99
